Monday, August 21, 2017, 7:51 AM EDT

KSEG, Selinsgrove Penn Valley Airport

Location: Selinsgrove, PA, United States Lat: 40.817
Local Time: 7:51 AM EDT (11:51 GMT) Lon: -76.867
Time Zone: US/Eastern Elev: 449 ft

Show me the last for .
Show Decoded

2017-08-21 06:53 METAR KSEG 211053Z AUTO 00000KT M1/4SM FG VV001 17/17 A3021 RMK AO2 SLP227
                 T01720172 =
2017-08-21 06:46 METAR KSEG 211046Z AUTO 00000KT 1/4SM FG VV001 17/17 A3021 RMK AO2 T01670167 =
2017-08-21 06:39 METAR KSEG 211039Z AUTO 00000KT 1SM BR OVC002 17/17 A3021 RMK AO2 T01720172 =
2017-08-21 06:27 METAR KSEG 211027Z AUTO 00000KT 2 1/2SM BR OVC002 17/17 A3021 RMK AO2 T01670167
                 =
2017-08-21 06:02 METAR KSEG 211002Z AUTO 00000KT 4SM BR BKN003 16/16 A3021 RMK AO2 T01610161 =
2017-08-21 05:53 METAR KSEG 210953Z AUTO 00000KT 4SM BR SCT003 16/16 A3021 RMK AO2 SLP226
                 T01610161 =
2017-08-21 05:00 METAR KSEG 210900Z AUTO 00000KT 4SM BR SCT003 16/16 A3020 RMK AO2 T01610161 =
2017-08-21 04:53 METAR KSEG 210853Z AUTO 00000KT 5SM BR BKN003 16/16 A3020 RMK AO2 SLP225
                 T01610161 53004 =
2017-08-21 04:49 METAR KSEG 210849Z AUTO 00000KT 5SM BR BKN003 16/16 A3020 RMK AO2 =
2017-08-21 04:40 METAR KSEG 210840Z AUTO 00000KT 5SM BR SCT003 16/16 A3020 RMK AO2 T01560156 =
2017-08-21 04:30 METAR KSEG 210830Z AUTO 00000KT 2SM BR CLR 16/16 A3019 RMK AO2 T01610161 =
2017-08-21 03:53 METAR KSEG 210753Z AUTO 00000KT 4SM BR CLR 16/16 A3019 RMK AO2 SLP220 T01560156
                 =
2017-08-21 02:53 METAR KSEG 210653Z AUTO 00000KT 6SM BR CLR 16/16 A3019 RMK AO2 SLP221 T01560156
                 =
2017-08-21 01:53 METAR KSEG 210553Z AUTO 00000KT 3SM BR CLR 16/16 A3019 RMK AO2 SLP221 T01610161
                 10217 20161 50001 =
2017-08-21 01:48 METAR KSEG 210548Z AUTO 00000KT 3SM BR CLR 16/16 A3019 RMK AO2 =
2017-08-21 01:35 METAR KSEG 210535Z AUTO 00000KT 1 3/4SM BR CLR 16/16 A3019 RMK AO2 T01610161 =
2017-08-21 00:53 METAR KSEG 210453Z AUTO 00000KT 5SM BR CLR 16/16 A3019 RMK AO2 SLP221 T01610161
                 402830139 =
2017-08-20 23:53 METAR KSEG 210353Z AUTO 00000KT 5SM BR CLR 17/17 A3019 RMK AO2 SLP221 T01720172
                 =
2017-08-20 22:53 METAR KSEG 210253Z AUTO 00000KT 6SM BR CLR 18/18 A3019 RMK AO2 SLP220 T01780178
                 51023 =
2017-08-20 21:53 METAR KSEG 210153Z AUTO 00000KT 6SM BR CLR 19/18 A3017 RMK AO2 SLP215 T01890183
                 =
2017-08-20 20:53 METAR KSEG 210053Z AUTO 00000KT 8SM CLR 19/19 A3014 RMK AO2 SLP203 T01940194 =
2017-08-20 19:53 METAR KSEG 202353Z AUTO 00000KT 9SM CLR 21/21 A3012 RMK AO2 SLP197 T02110206
                 10283 20211 53002 =
2017-08-20 18:53 METAR KSEG 202253Z AUTO 19004KT 10SM CLR 26/18 A3011 RMK AO2 SLP192 T02560183 =
2017-08-20 17:53 METAR KSEG 202153Z AUTO 00000KT 10SM CLR 27/17 A3010 RMK AO2 SLP191 T02720172 =
2017-08-20 16:53 METAR KSEG 202053Z AUTO 00000KT 10SM CLR 28/18 A3011 RMK AO2 SLP194 T02830178
                 56008 =
2017-08-20 15:53 METAR KSEG 201953Z AUTO VRB03KT 10SM CLR 28/17 A3012 RMK AO2 SLP195 T02780172 =
2017-08-20 14:53 METAR KSEG 201853Z AUTO 00000KT 10SM SCT050 28/18 A3012 RMK AO2 SLP198 T02780183
                 =
2017-08-20 13:53 METAR KSEG 201753Z AUTO 02003KT 10SM CLR 27/19 A3014 RMK AO2 SLP202 T02720189
                 10272 20178 50000 =
2017-08-20 12:53 METAR KSEG 201653Z AUTO VRB03KT 10SM SCT041 26/18 A3015 RMK AO2 SLP207 T02610183
                 =
2017-08-20 11:53 METAR KSEG 201553Z AUTO VRB03KT 10SM CLR 26/18 A3014 RMK AO2 SLP204 T02560183 =
2017-08-20 10:53 METAR KSEG 201453Z AUTO 00000KT 10SM CLR 24/17 A3013 RMK AO2 SLP202 T02390172
                 53008 =
2017-08-20 09:53 METAR KSEG 201353Z AUTO 29004KT 10SM CLR 22/17 A3012 RMK AO2 SLP198 T02220172 =
2017-08-20 08:53 METAR KSEG 201253Z AUTO 29004KT 10SM CLR 21/17 A3011 RMK AO2 SLP194 T02060172 =
2017-08-20 07:53 METAR KSEG 201153Z AUTO 31004KT 7SM CLR 18/17 A3011 RMK AO2 SLP194 70020
                 T01780172 10178 20139 51020 =

Support USWX by starting your Amazon purchase here.